createdAt,value
2023-01-12T00:01:10.668Z,2.70
2023-01-12T00:03:39.371Z,2.22
2023-01-12T00:06:12.913Z,1.92
2023-01-12T00:08:41.802Z,2.45
2023-01-12T00:11:10.507Z,2.45
2023-01-12T00:13:40.515Z,2.53
2023-01-12T00:16:34.042Z,2.28
2023-01-12T00:19:02.884Z,2.03
2023-01-12T00:21:33.135Z,2.35
2023-01-12T00:24:01.611Z,2.25
2023-01-12T00:26:30.008Z,2.10
2023-01-12T00:29:00.218Z,2.10
2023-01-12T00:31:28.833Z,2.03
2023-01-12T00:38:53.448Z,2.17
2023-01-12T00:41:35.684Z,2.25
2023-01-12T00:44:23.997Z,2.17
2023-01-12T00:46:52.480Z,2.78
2023-01-12T00:54:17.120Z,1.58
2023-01-12T00:56:45.935Z,2.55
2023-01-12T00:59:15.702Z,2.50
2023-01-12T01:01:44.267Z,2.70
2023-01-12T01:04:12.844Z,2.15
2023-01-12T01:06:41.682Z,2.35
2023-01-12T01:09:10.142Z,2.17
2023-01-12T01:11:38.875Z,2.22
2023-01-12T01:14:07.851Z,2.30
2023-01-12T01:16:37.816Z,1.90
2023-01-12T01:19:07.483Z,2.20
2023-01-12T01:21:35.995Z,2.60
2023-01-12T01:29:00.837Z,1.98
2023-01-12T01:33:59.138Z,2.17
2023-01-12T01:36:27.828Z,2.78
2023-01-12T01:38:56.371Z,2.28
2023-01-12T01:41:27.470Z,2.10
2023-01-12T01:43:58.786Z,1.98
2023-01-12T01:46:39.550Z,2.83
2023-01-12T01:49:28.803Z,2.40
2023-01-12T01:52:02.260Z,2.35
2023-01-12T01:54:35.076Z,1.75
2023-01-12T01:57:04.184Z,3.08
2023-01-12T01:59:36.069Z,2.53
2023-01-12T02:02:05.444Z,2.40
2023-01-12T02:04:35.683Z,2.17
2023-01-12T02:07:07.351Z,2.63
2023-01-12T02:09:36.095Z,2.15
2023-01-12T02:12:23.157Z,2.00
2023-01-12T02:15:11.282Z,2.45
2023-01-12T02:17:59.022Z,1.55
2023-01-12T02:20:48.614Z,2.00
2023-01-12T02:24:13.841Z,1.92
2023-01-12T02:27:32.587Z,2.10
2023-01-12T02:30:37.485Z,2.10
2023-01-12T02:33:20.849Z,2.20
2023-01-12T02:35:59.004Z,2.13
2023-01-12T02:41:16.392Z,2.08
2023-01-12T02:43:44.180Z,2.42
2023-01-12T02:46:20.343Z,2.40
2023-01-12T02:48:55.925Z,2.38
2023-01-12T02:51:29.411Z,2.40
2023-01-12T02:54:02.424Z,2.30
2023-01-12T02:56:34.432Z,1.90
2023-01-12T02:59:08.731Z,2.17
2023-01-12T03:01:38.997Z,2.30
2023-01-12T03:04:10.430Z,3.40
2023-01-12T03:06:46.755Z,2.75
2023-01-12T03:09:19.516Z,2.30
2023-01-12T03:11:51.812Z,1.75
2023-01-12T03:14:22.208Z,2.47
2023-01-12T03:16:52.704Z,2.60
2023-01-12T03:19:29.367Z,2.00
2023-01-12T03:22:00.491Z,2.40
2023-01-12T03:24:31.981Z,2.25
2023-01-12T03:27:03.399Z,2.40
2023-01-12T03:29:36.662Z,2.25
2023-01-12T03:32:06.346Z,2.20
2023-01-12T03:34:38.216Z,2.85
2023-01-12T03:37:11.485Z,2.45
2023-01-12T03:39:53.449Z,2.53
2023-01-12T03:42:27.432Z,2.90
2023-01-12T03:45:07.831Z,2.67
2023-01-12T03:47:37.886Z,2.33
2023-01-12T03:50:12.709Z,2.70
2023-01-12T03:52:43.450Z,2.63
2023-01-12T03:55:15.173Z,2.25
2023-01-12T03:57:47.397Z,2.67
2023-01-12T04:00:18.303Z,2.65
2023-01-12T04:02:48.426Z,2.58
2023-01-12T04:05:18.655Z,2.70
2023-01-12T04:07:47.190Z,3.13
2023-01-12T04:15:12.254Z,2.22
2023-01-12T04:17:40.891Z,2.35
2023-01-12T04:20:11.091Z,2.95
2023-01-12T04:22:45.858Z,2.88
2023-01-12T04:25:15.838Z,2.40
2023-01-12T04:27:47.680Z,2.42
2023-01-12T04:30:18.013Z,2.42
2023-01-12T04:32:47.305Z,3.85
2023-01-12T04:35:16.527Z,2.83
2023-01-12T04:37:47.449Z,2.97
2023-01-12T04:40:17.786Z,2.83
2023-01-12T04:43:07.377Z,2.67
2023-01-12T04:45:38.371Z,2.90
2023-01-12T04:48:09.203Z,1.92
2023-01-12T04:50:39.064Z,2.67
2023-01-12T04:53:11.219Z,2.67
2023-01-12T04:55:41.877Z,2.78
2023-01-12T04:58:10.877Z,2.80
2023-01-12T05:00:39.299Z,3.15
2023-01-12T05:03:07.885Z,2.20
2023-01-12T05:05:37.634Z,2.42
2023-01-12T05:08:27.991Z,2.38
2023-01-12T05:10:58.240Z,2.15
2023-01-12T05:13:28.702Z,2.70
2023-01-12T05:15:57.390Z,3.08
2023-01-12T05:18:28.324Z,2.78
2023-01-12T05:20:58.584Z,1.85
2023-01-12T05:23:28.520Z,3.00
2023-01-12T05:26:00.122Z,2.72
2023-01-12T05:28:29.095Z,3.08
2023-01-12T05:31:03.689Z,2.53
2023-01-12T05:33:32.468Z,2.47
2023-01-12T05:36:01.018Z,3.03
2023-01-12T05:38:33.911Z,3.15
2023-01-12T05:41:02.920Z,2.55
2023-01-12T05:43:49.362Z,2.47
2023-01-12T05:46:18.913Z,2.30
2023-01-12T05:48:47.378Z,2.42
2023-01-12T05:51:16.473Z,2.97
2023-01-12T05:53:46.563Z,2.97
2023-01-12T05:56:19.023Z,4.00
2023-01-12T05:58:51.417Z,2.75
2023-01-12T06:01:20.352Z,3.63
2023-01-12T06:03:51.209Z,2.78
2023-01-12T06:06:20.391Z,2.75
2023-01-12T06:08:52.694Z,2.78
2023-01-12T06:11:39.829Z,3.95
2023-01-12T06:14:09.181Z,3.60
2023-01-12T06:16:39.756Z,2.28
2023-01-12T06:19:09.853Z,2.78
2023-01-12T06:21:40.553Z,3.58
2023-01-12T06:24:10.750Z,3.00
2023-01-12T06:26:39.218Z,2.88
2023-01-12T06:31:37.236Z,3.08
2023-01-12T06:34:07.664Z,3.72
2023-01-12T06:36:36.957Z,3.13
2023-01-12T06:39:05.751Z,2.47
2023-01-12T06:41:53.938Z,2.03
2023-01-12T06:44:22.445Z,3.92
2023-01-12T06:54:18.378Z,2.55
2023-01-12T06:56:48.610Z,2.90
2023-01-12T06:59:17.053Z,3.53
2023-01-12T07:04:13.888Z,3.90
2023-01-12T07:06:42.347Z,3.05
2023-01-12T07:09:10.810Z,2.35
2023-01-12T07:11:39.224Z,3.30
2023-01-12T07:14:09.397Z,2.40
2023-01-12T07:16:37.813Z,2.53
2023-01-12T07:21:34.510Z,3.10
2023-01-12T07:26:31.087Z,2.97
2023-01-12T07:28:59.499Z,3.78
2023-01-12T07:31:29.777Z,3.28
2023-01-12T07:33:58.348Z,3.47
2023-01-12T07:36:26.992Z,3.88
2023-01-12T07:38:55.579Z,3.55
2023-01-12T07:41:41.330Z,2.60
2023-01-12T07:44:10.629Z,4.00
2023-01-12T07:46:40.489Z,7.00
2023-01-12T07:49:09.010Z,5.05
2023-01-12T07:51:37.372Z,2.95
2023-01-12T07:54:06.118Z,4.15
2023-01-12T07:56:34.503Z,4.05
2023-01-12T07:59:03.064Z,3.97
2023-01-12T08:01:32.701Z,2.88
2023-01-12T08:04:02.798Z,3.92
2023-01-12T08:06:31.445Z,3.53
2023-01-12T08:08:59.900Z,2.60
2023-01-12T08:11:28.425Z,3.88
2023-01-12T08:13:57.673Z,4.20
2023-01-12T08:16:31.141Z,3.65
2023-01-12T08:19:03.712Z,4.30
2023-01-12T08:21:35.698Z,3.28
2023-01-12T08:24:07.727Z,4.00
2023-01-12T08:26:40.931Z,3.90
2023-01-12T08:29:13.226Z,3.83
2023-01-12T08:31:42.598Z,3.97
2023-01-12T08:34:12.577Z,3.35
2023-01-12T08:36:44.474Z,2.90
2023-01-12T08:39:13.301Z,3.65
2023-01-12T08:41:42.453Z,4.22
2023-01-12T08:44:11.144Z,3.80
2023-01-12T08:46:41.294Z,5.18
2023-01-12T08:49:16.603Z,3.78
2023-01-12T08:51:46.065Z,4.72
2023-01-12T08:54:16.705Z,3.90
2023-01-12T08:56:45.456Z,4.80
2023-01-12T08:59:14.297Z,4.05
2023-01-12T09:01:43.166Z,3.92
2023-01-12T09:04:13.202Z,3.67
2023-01-12T09:06:43.850Z,4.45
2023-01-12T09:09:14.853Z,3.45
2023-01-12T09:11:44.879Z,4.85
2023-01-12T09:14:15.515Z,4.78
2023-01-12T09:16:44.371Z,4.25
2023-01-12T09:19:14.432Z,3.47
2023-01-12T09:21:43.748Z,4.70
2023-01-12T09:24:14.845Z,3.90
2023-01-12T09:26:45.014Z,5.15
2023-01-12T09:29:15.295Z,3.88
2023-01-12T09:31:46.065Z,3.55
2023-01-12T09:34:16.014Z,3.63
2023-01-12T09:36:44.922Z,3.67
2023-01-12T09:39:27.516Z,3.42
2023-01-12T09:42:14.667Z,4.10
2023-01-12T09:45:02.656Z,3.72
2023-01-12T09:47:39.818Z,3.95
2023-01-12T09:50:13.259Z,2.80
2023-01-12T09:52:47.725Z,3.20
2023-01-12T09:55:19.571Z,3.78
2023-01-12T09:58:19.469Z,4.05
2023-01-12T10:00:52.075Z,3.92
2023-01-12T10:03:28.352Z,4.18
2023-01-12T10:06:00.694Z,2.85
2023-01-12T10:08:33.489Z,3.28
2023-01-12T10:11:09.847Z,3.97
2023-01-12T10:14:02.580Z,3.25
2023-01-12T10:16:36.321Z,3.80
2023-01-12T10:19:18.708Z,2.05
2023-01-12T10:21:48.884Z,3.33
2023-01-12T10:24:21.448Z,2.83
2023-01-12T10:26:58.375Z,2.55
2023-01-12T10:29:27.010Z,2.75
2023-01-12T10:31:55.539Z,3.17
2023-01-12T10:34:24.048Z,3.40
2023-01-12T19:59:23.492Z,5.75
2023-01-12T20:01:54.025Z,5.38
2023-01-12T20:04:22.814Z,4.82
2023-01-12T20:06:53.310Z,5.60
2023-01-12T20:09:24.416Z,6.63
2023-01-12T20:11:55.217Z,6.03
2023-01-12T20:14:25.149Z,5.88
2023-01-12T20:16:53.769Z,6.35
2023-01-12T20:19:22.624Z,6.47
2023-01-12T20:21:51.291Z,6.25
2023-01-12T20:24:19.844Z,5.97
2023-01-12T20:26:48.553Z,6.78
2023-01-12T20:29:19.652Z,5.50
2023-01-12T20:31:52.565Z,5.80
2023-01-12T20:34:25.475Z,6.65
2023-01-12T20:36:55.209Z,6.80
2023-01-12T20:39:26.633Z,5.85
2023-01-12T20:41:55.153Z,4.95
2023-01-12T20:49:21.778Z,5.97
2023-01-12T20:51:53.554Z,5.45
2023-01-12T20:54:22.147Z,6.88
2023-01-12T20:59:19.299Z,6.18
2023-01-12T21:04:19.470Z,6.43
2023-01-12T21:06:48.275Z,6.22
2023-01-12T21:09:16.717Z,6.20
2023-01-12T21:11:47.192Z,6.28
2023-01-12T21:14:15.885Z,6.70
2023-01-12T21:16:44.355Z,7.32
2023-01-12T21:19:13.032Z,7.00
2023-01-12T21:21:42.878Z,6.22
2023-01-12T21:24:11.351Z,5.90
2023-01-12T21:29:08.159Z,6.78
2023-01-12T21:31:36.640Z,7.13
2023-01-12T21:34:06.167Z,7.05
2023-01-12T21:36:34.702Z,7.32
2023-01-12T21:41:54.619Z,5.65
2023-01-12T21:44:23.158Z,6.43
2023-01-12T21:46:51.588Z,6.72
2023-01-12T21:51:48.161Z,5.43
2023-01-12T21:56:46.116Z,7.82
2023-01-12T22:01:42.785Z,7.50
2023-01-12T22:04:11.404Z,5.70
2023-01-12T22:06:39.818Z,6.90
2023-01-12T22:09:08.439Z,6.60
2023-01-12T22:14:06.368Z,6.38
2023-01-12T22:16:34.842Z,7.05
2023-01-12T22:19:03.908Z,7.95
2023-01-12T22:21:32.374Z,6.82
2023-01-12T22:24:00.792Z,7.18
2023-01-12T22:26:30.547Z,7.68
2023-01-12T22:29:00.634Z,6.40
2023-01-12T22:31:29.110Z,7.60
2023-01-12T22:36:34.731Z,5.75
2023-01-12T22:39:03.619Z,7.00
2023-01-12T22:46:30.088Z,6.18
2023-01-12T22:48:59.822Z,6.18
2023-01-12T22:51:29.588Z,5.40
2023-01-12T22:53:58.265Z,6.55
2023-01-12T22:56:27.123Z,6.63
2023-01-12T22:58:57.027Z,6.95
2023-01-12T23:01:27.808Z,6.22
2023-01-12T23:03:57.015Z,7.40
2023-01-12T23:06:26.593Z,7.85
2023-01-12T23:08:55.109Z,6.15
2023-01-12T23:11:25.473Z,7.95
2023-01-12T23:13:54.977Z,7.10
2023-01-12T23:16:24.593Z,7.07
2023-01-12T23:18:55.502Z,7.22
2023-01-12T23:21:26.461Z,6.90
2023-01-12T23:23:56.897Z,7.15
2023-01-12T23:26:28.259Z,6.68
2023-01-12T23:29:00.424Z,6.60
2023-01-12T23:31:31.024Z,5.40
2023-01-12T23:34:01.384Z,6.63
2023-01-12T23:36:31.406Z,7.35
2023-01-12T23:39:01.454Z,8.30
2023-01-12T23:41:31.157Z,8.50
2023-01-12T23:44:02.531Z,7.55
2023-01-12T23:46:35.181Z,6.75
2023-01-12T23:49:06.154Z,7.10
2023-01-12T23:51:36.367Z,7.95
2023-01-12T23:54:05.519Z,7.90
2023-01-12T23:56:35.076Z,6.93
2023-01-12T23:59:03.528Z,5.82
